sensor_id;sensor_type;location;lat;lon;timestamp;temperature;humidity
10662;DHT22;5379;51.034;7.006;2023-07-20T04:34:22;22.70;99.90
10662;DHT22;5379;51.034;7.006;2023-07-20T04:36:49;22.30;99.90
10662;DHT22;5379;51.034;7.006;2023-07-20T04:39:16;22.40;99.90
10662;DHT22;5379;51.034;7.006;2023-07-20T04:41:42;21.90;99.90
10662;DHT22;5379;51.034;7.006;2023-07-20T04:44:09;21.60;99.90
10662;DHT22;5379;51.034;7.006;2023-07-20T04:46:36;21.30;99.90
10662;DHT22;5379;51.034;7.006;2023-07-20T04:49:05;21.50;99.90
10662;DHT22;5379;51.034;7.006;2023-07-20T04:51:32;21.50;99.90
10662;DHT22;5379;51.034;7.006;2023-07-20T04:53:58;21.60;99.90
10662;DHT22;5379;51.034;7.006;2023-07-20T04:56:25;22.10;99.90
10662;DHT22;5379;51.034;7.006;2023-07-20T04:58:52;22.10;99.90
10662;DHT22;5379;51.034;7.006;2023-07-20T05:01:19;22.00;99.90
10662;DHT22;5379;51.034;7.006;2023-07-20T05:03:46;22.60;99.90
10662;DHT22;5379;51.034;7.006;2023-07-20T05:06:14;22.60;99.90
10662;DHT22;5379;51.034;7.006;2023-07-20T05:08:41;22.40;99.90
10662;DHT22;5379;51.034;7.006;2023-07-20T05:11:08;22.80;99.90
10662;DHT22;5379;51.034;7.006;2023-07-20T05:13:36;23.20;99.90
10662;DHT22;5379;51.034;7.006;2023-07-20T05:16:03;23.70;99.30
10662;DHT22;5379;51.034;7.006;2023-07-20T05:18:30;23.50;99.90
10662;DHT22;5379;51.034;7.006;2023-07-20T05:20:57;23.80;99.50
10662;DHT22;5379;51.034;7.006;2023-07-20T05:23:25;23.70;99.90
10662;DHT22;5379;51.034;7.006;2023-07-20T05:25:54;23.10;99.90
10662;DHT22;5379;51.034;7.006;2023-07-20T05:28:21;22.40;99.90
10662;DHT22;5379;51.034;7.006;2023-07-20T05:30:49;22.40;99.90
10662;DHT22;5379;51.034;7.006;2023-07-20T05:33:17;22.60;99.90
10662;DHT22;5379;51.034;7.006;2023-07-20T05:35:44;22.80;99.90
10662;DHT22;5379;51.034;7.006;2023-07-20T05:38:11;22.20;99.90
10662;DHT22;5379;51.034;7.006;2023-07-20T05:40:40;22.10;99.90
10662;DHT22;5379;51.034;7.006;2023-07-20T05:43:07;22.00;99.90
10662;DHT22;5379;51.034;7.006;2023-07-20T05:45:35;22.70;99.90
10662;DHT22;5379;51.034;7.006;2023-07-20T05:48:02;22.90;99.90
10662;DHT22;5379;51.034;7.006;2023-07-20T05:50:29;23.00;99.90
10662;DHT22;5379;51.034;7.006;2023-07-20T05:52:56;22.90;99.90
10662;DHT22;5379;51.034;7.006;2023-07-20T05:55:23;23.20;99.90
10662;DHT22;5379;51.034;7.006;2023-07-20T05:57:51;23.80;99.90
10662;DHT22;5379;51.034;7.006;2023-07-20T06:00:20;23.50;99.80
10662;DHT22;5379;51.034;7.006;2023-07-20T06:02:52;23.20;99.90
10662;DHT22;5379;51.034;7.006;2023-07-20T06:05:18;23.20;99.90
10662;DHT22;5379;51.034;7.006;2023-07-20T06:07:46;23.20;99.90
10662;DHT22;5379;51.034;7.006;2023-07-20T06:10:13;22.50;99.90
10662;DHT22;5379;51.034;7.006;2023-07-20T06:12:40;22.10;99.90
10662;DHT22;5379;51.034;7.006;2023-07-20T06:15:25;21.90;99.90
10662;DHT22;5379;51.034;7.006;2023-07-20T06:17:53;21.90;99.90
10662;DHT22;5379;51.034;7.006;2023-07-20T06:20:20;21.70;99.90
10662;DHT22;5379;51.034;7.006;2023-07-20T06:22:46;22.00;99.90
10662;DHT22;5379;51.034;7.006;2023-07-20T06:25:13;22.50;99.90
10662;DHT22;5379;51.034;7.006;2023-07-20T06:27:41;21.70;99.90
10662;DHT22;5379;51.034;7.006;2023-07-20T06:30:10;21.70;99.90
10662;DHT22;5379;51.034;7.006;2023-07-20T06:32:37;21.80;99.90
10662;DHT22;5379;51.034;7.006;2023-07-20T06:35:05;22.00;99.90
10662;DHT22;5379;51.034;7.006;2023-07-20T06:37:34;21.80;99.90
10662;DHT22;5379;51.034;7.006;2023-07-20T06:40:01;22.00;99.90
10662;DHT22;5379;51.034;7.006;2023-07-20T06:42:29;22.00;99.90
10662;DHT22;5379;51.034;7.006;2023-07-20T06:44:56;22.30;99.90
10662;DHT22;5379;51.034;7.006;2023-07-20T06:47:25;22.50;99.90
10662;DHT22;5379;51.034;7.006;2023-07-20T06:49:52;22.90;99.90
10662;DHT22;5379;51.034;7.006;2023-07-20T06:52:19;22.90;99.90
10662;DHT22;5379;51.034;7.006;2023-07-20T06:54:46;22.40;99.90
10662;DHT22;5379;51.034;7.006;2023-07-20T06:57:13;22.10;99.90
10662;DHT22;5379;51.034;7.006;2023-07-20T06:59:40;22.00;99.90
10662;DHT22;5379;51.034;7.006;2023-07-20T07:02:07;21.90;99.90
10662;DHT22;5379;51.034;7.006;2023-07-20T07:04:35;22.80;99.90
10662;DHT22;5379;51.034;7.006;2023-07-20T07:07:02;23.30;99.90
10662;DHT22;5379;51.034;7.006;2023-07-20T07:09:29;24.20;99.90
10662;DHT22;5379;51.034;7.006;2023-07-20T07:11:56;24.40;98.80
10662;DHT22;5379;51.034;7.006;2023-07-20T07:14:23;23.80;99.70
10662;DHT22;5379;51.034;7.006;2023-07-20T07:16:50;23.20;99.90
10662;DHT22;5379;51.034;7.006;2023-07-20T07:19:17;23.50;99.90
10662;DHT22;5379;51.034;7.006;2023-07-20T07:21:46;23.20;99.90
10662;DHT22;5379;51.034;7.006;2023-07-20T07:24:13;23.30;99.90
10662;DHT22;5379;51.034;7.006;2023-07-20T07:26:40;23.50;99.90
10662;DHT22;5379;51.034;7.006;2023-07-20T07:29:07;24.10;99.60
10662;DHT22;5379;51.034;7.006;2023-07-20T07:31:34;24.60;99.60
10662;DHT22;5379;51.034;7.006;2023-07-20T07:34:01;25.20;99.00
10662;DHT22;5379;51.034;7.006;2023-07-20T07:36:28;25.70;97.20
10662;DHT22;5379;51.034;7.006;2023-07-20T07:38:56;26.10;98.20
10662;DHT22;5379;51.034;7.006;2023-07-20T07:41:25;26.10;97.40
10662;DHT22;5379;51.034;7.006;2023-07-20T07:43:52;26.00;97.30
10662;DHT22;5379;51.034;7.006;2023-07-20T07:46:19;25.80;98.10
10662;DHT22;5379;51.034;7.006;2023-07-20T07:48:46;25.60;96.30
10662;DHT22;5379;51.034;7.006;2023-07-20T07:51:13;23.90;98.10
10662;DHT22;5379;51.034;7.006;2023-07-20T07:53:41;23.90;99.80
10662;DHT22;5379;51.034;7.006;2023-07-20T07:56:10;24.80;99.30
10662;DHT22;5379;51.034;7.006;2023-07-20T07:58:37;24.70;99.10
10662;DHT22;5379;51.034;7.006;2023-07-20T08:01:04;24.40;99.40
10662;DHT22;5379;51.034;7.006;2023-07-20T08:03:31;24.50;99.40
10662;DHT22;5379;51.034;7.006;2023-07-20T08:05:58;24.40;98.90
10662;DHT22;5379;51.034;7.006;2023-07-20T08:08:26;24.60;99.30
10662;DHT22;5379;51.034;7.006;2023-07-20T08:10:53;25.00;98.90
10662;DHT22;5379;51.034;7.006;2023-07-20T08:13:22;24.80;99.00
10662;DHT22;5379;51.034;7.006;2023-07-20T08:15:50;25.20;98.60
10662;DHT22;5379;51.034;7.006;2023-07-20T08:18:17;25.30;98.80
10662;DHT22;5379;51.034;7.006;2023-07-20T08:20:45;25.20;98.40
10662;DHT22;5379;51.034;7.006;2023-07-20T08:23:12;25.20;98.60
10662;DHT22;5379;51.034;7.006;2023-07-20T08:25:39;25.30;98.50
10662;DHT22;5379;51.034;7.006;2023-07-20T08:28:09;25.70;98.00
10662;DHT22;5379;51.034;7.006;2023-07-20T08:30:41;25.60;96.80
10662;DHT22;5379;51.034;7.006;2023-07-20T08:33:10;25.60;97.60
10662;DHT22;5379;51.034;7.006;2023-07-20T08:35:37;25.60;98.00
10662;DHT22;5379;51.034;7.006;2023-07-20T08:38:04;25.20;96.90
10662;DHT22;5379;51.034;7.006;2023-07-20T08:40:31;24.40;97.60
10662;DHT22;5379;51.034;7.006;2023-07-20T08:42:59;24.40;97.90
10662;DHT22;5379;51.034;7.006;2023-07-20T08:45:27;24.80;98.10
10662;DHT22;5379;51.034;7.006;2023-07-20T08:47:56;25.20;96.80
10662;DHT22;5379;51.034;7.006;2023-07-20T08:50:26;25.70;97.70
10662;DHT22;5379;51.034;7.006;2023-07-20T08:52:54;25.50;96.30
10662;DHT22;5379;51.034;7.006;2023-07-20T08:55:22;24.80;96.20
10662;DHT22;5379;51.034;7.006;2023-07-20T08:57:50;24.60;96.50
10662;DHT22;5379;51.034;7.006;2023-07-20T09:00:20;24.40;95.90
10662;DHT22;5379;51.034;7.006;2023-07-20T09:02:50;24.00;95.70
10662;DHT22;5379;51.034;7.006;2023-07-20T09:05:18;24.20;96.80
10662;DHT22;5379;51.034;7.006;2023-07-20T09:07:46;24.40;95.50
10662;DHT22;5379;51.034;7.006;2023-07-20T09:10:13;24.60;95.50
10662;DHT22;5379;51.034;7.006;2023-07-20T09:12:41;25.30;97.40
10662;DHT22;5379;51.034;7.006;2023-07-20T09:15:09;25.20;95.60
10662;DHT22;5379;51.034;7.006;2023-07-20T09:17:37;25.00;96.00
10662;DHT22;5379;51.034;7.006;2023-07-20T09:20:05;24.90;95.50
10662;DHT22;5379;51.034;7.006;2023-07-20T09:22:37;24.40;97.20
10662;DHT22;5379;51.034;7.006;2023-07-20T09:25:06;24.60;95.60
10662;DHT22;5379;51.034;7.006;2023-07-20T09:27:35;24.50;96.20
10662;DHT22;5379;51.034;7.006;2023-07-20T09:30:04;24.50;96.60
10662;DHT22;5379;51.034;7.006;2023-07-20T09:32:38;25.40;96.60
10662;DHT22;5379;51.034;7.006;2023-07-20T09:35:06;24.80;95.00
10662;DHT22;5379;51.034;7.006;2023-07-20T09:37:33;25.00;97.40
10662;DHT22;5379;51.034;7.006;2023-07-20T09:40:02;24.90;95.50
10662;DHT22;5379;51.034;7.006;2023-07-20T09:42:36;24.80;95.50
10662;DHT22;5379;51.034;7.006;2023-07-20T09:45:06;24.70;97.40
10662;DHT22;5379;51.034;7.006;2023-07-20T09:47:35;25.20;95.80
10662;DHT22;5379;51.034;7.006;2023-07-20T09:50:04;25.20;96.20
10662;DHT22;5379;51.034;7.006;2023-07-20T09:52:37;24.60;96.90
10662;DHT22;5379;51.034;7.006;2023-07-20T09:55:07;24.50;95.10
10662;DHT22;5379;51.034;7.006;2023-07-20T09:57:35;24.80;95.80
10662;DHT22;5379;51.034;7.006;2023-07-20T10:00:04;25.00;94.80
10662;DHT22;5379;51.034;7.006;2023-07-20T10:02:39;25.50;96.20
10662;DHT22;5379;51.034;7.006;2023-07-20T10:05:08;25.70;94.90
10662;DHT22;5379;51.034;7.006;2023-07-20T10:07:36;25.60;93.70
10662;DHT22;5379;51.034;7.006;2023-07-20T10:10:09;25.70;96.10
10662;DHT22;5379;51.034;7.006;2023-07-20T10:12:39;26.50;96.20
10662;DHT22;5379;51.034;7.006;2023-07-20T10:15:12;25.70;96.80
10662;DHT22;5379;51.034;7.006;2023-07-20T10:17:49;24.70;97.90
10662;DHT22;5379;51.034;7.006;2023-07-20T10:20:19;24.60;97.80
10662;DHT22;5379;51.034;7.006;2023-07-20T10:22:48;25.10;96.50
10662;DHT22;5379;51.034;7.006;2023-07-20T10:25:18;24.40;93.30
10662;DHT22;5379;51.034;7.006;2023-07-20T10:27:47;24.40;93.50
10662;DHT22;5379;51.034;7.006;2023-07-20T10:30:15;25.00;97.20
10662;DHT22;5379;51.034;7.006;2023-07-20T10:32:45;25.10;94.80
10662;DHT22;5379;51.034;7.006;2023-07-20T10:35:13;25.50;95.30
10662;DHT22;5379;51.034;7.006;2023-07-20T10:38:01;25.60;95.10
10662;DHT22;5379;51.034;7.006;2023-07-20T10:40:33;25.80;94.30
10662;DHT22;5379;51.034;7.006;2023-07-20T10:43:10;25.50;93.00
10662;DHT22;5379;51.034;7.006;2023-07-20T10:45:41;25.60;93.30
10662;DHT22;5379;51.034;7.006;2023-07-20T10:48:18;26.10;94.30
10662;DHT22;5379;51.034;7.006;2023-07-20T10:50:48;25.80;93.00
10662;DHT22;5379;51.034;7.006;2023-07-20T10:53:33;25.50;92.90
10662;DHT22;5379;51.034;7.006;2023-07-20T10:56:09;25.70;96.00
10662;DHT22;5379;51.034;7.006;2023-07-20T10:58:37;26.30;96.00
10662;DHT22;5379;51.034;7.006;2023-07-20T11:01:04;25.50;97.00
10662;DHT22;5379;51.034;7.006;2023-07-20T11:03:33;25.10;97.50
10662;DHT22;5379;51.034;7.006;2023-07-20T11:06:30;25.90;97.40
10662;DHT22;5379;51.034;7.006;2023-07-20T11:09:08;25.30;92.70
10662;DHT22;5379;51.034;7.006;2023-07-20T11:11:37;25.20;94.40
10662;DHT22;5379;51.034;7.006;2023-07-20T11:14:05;25.80;96.50
10662;DHT22;5379;51.034;7.006;2023-07-20T11:16:35;25.70;92.40
10662;DHT22;5379;51.034;7.006;2023-07-20T11:19:03;25.00;92.40
10662;DHT22;5379;51.034;7.006;2023-07-20T11:21:36;25.50;95.30
10662;DHT22;5379;51.034;7.006;2023-07-20T11:24:04;25.80;96.00
10662;DHT22;5379;51.034;7.006;2023-07-20T11:26:40;25.70;95.40
10662;DHT22;5379;51.034;7.006;2023-07-20T11:29:06;25.20;96.50
10662;DHT22;5379;51.034;7.006;2023-07-20T11:31:35;25.40;97.10
10662;DHT22;5379;51.034;7.006;2023-07-20T11:34:02;25.20;96.90
10662;DHT22;5379;51.034;7.006;2023-07-20T11:36:29;25.10;97.30
10662;DHT22;5379;51.034;7.006;2023-07-20T11:38:58;24.80;97.50
10662;DHT22;5379;51.034;7.006;2023-07-20T11:41:25;24.90;97.40
10662;DHT22;5379;51.034;7.006;2023-07-20T11:43:54;24.60;97.10
10662;DHT22;5379;51.034;7.006;2023-07-20T11:46:21;24.80;92.80
10662;DHT22;5379;51.034;7.006;2023-07-20T11:48:48;25.50;92.50
10662;DHT22;5379;51.034;7.006;2023-07-20T11:51:15;25.90;92.20
10662;DHT22;5379;51.034;7.006;2023-07-20T11:53:43;25.90;91.40
10662;DHT22;5379;51.034;7.006;2023-07-20T11:56:13;26.70;93.10
10662;DHT22;5379;51.034;7.006;2023-07-20T11:58:44;27.10;93.60
10662;DHT22;5379;51.034;7.006;2023-07-20T12:01:12;27.20;92.60
10662;DHT22;5379;51.034;7.006;2023-07-20T12:03:39;27.10;92.90
10662;DHT22;5379;51.034;7.006;2023-07-20T12:06:06;26.90;90.80
10662;DHT22;5379;51.034;7.006;2023-07-20T12:11:01;26.80;92.90
10662;DHT22;5379;51.034;7.006;2023-07-20T12:13:42;27.10;92.80
10662;DHT22;5379;51.034;7.006;2023-07-20T12:16:10;27.20;90.90
10662;DHT22;5379;51.034;7.006;2023-07-20T12:18:38;27.10;91.40
10662;DHT22;5379;51.034;7.006;2023-07-20T12:21:06;26.80;90.30
10662;DHT22;5379;51.034;7.006;2023-07-20T12:23:38;26.80;91.30
10662;DHT22;5379;51.034;7.006;2023-07-20T12:26:08;27.20;92.70
10662;DHT22;5379;51.034;7.006;2023-07-20T12:28:40;27.40;93.00
10662;DHT22;5379;51.034;7.006;2023-07-20T12:31:07;27.60;92.00
10662;DHT22;5379;51.034;7.006;2023-07-20T12:33:35;27.60;92.80
10662;DHT22;5379;51.034;7.006;2023-07-20T12:36:02;27.30;91.10
10662;DHT22;5379;51.034;7.006;2023-07-20T12:38:29;27.60;92.90
10662;DHT22;5379;51.034;7.006;2023-07-20T12:40:57;27.50;91.90
10662;DHT22;5379;51.034;7.006;2023-07-20T12:43:26;27.80;93.60
10662;DHT22;5379;51.034;7.006;2023-07-20T12:45:54;27.80;94.00
10662;DHT22;5379;51.034;7.006;2023-07-20T12:48:21;27.50;92.40
10662;DHT22;5379;51.034;7.006;2023-07-20T12:50:49;27.70;93.40
10662;DHT22;5379;51.034;7.006;2023-07-20T12:53:16;27.30;91.60
10662;DHT22;5379;51.034;7.006;2023-07-20T12:55:43;27.50;93.40
10662;DHT22;5379;51.034;7.006;2023-07-20T12:58:11;27.30;91.00
10662;DHT22;5379;51.034;7.006;2023-07-20T13:10:46;26.60;94.80
10662;DHT22;5379;51.034;7.006;2023-07-20T13:13:14;26.60;95.10
10662;DHT22;5379;51.034;7.006;2023-07-20T13:15:42;26.30;92.10
10662;DHT22;5379;51.034;7.006;2023-07-20T13:18:09;26.70;93.30
10662;DHT22;5379;51.034;7.006;2023-07-20T13:26:58;27.20;93.40
10662;DHT22;5379;51.034;7.006;2023-07-20T13:29:57;27.20;93.50
10662;DHT22;5379;51.034;7.006;2023-07-20T13:32:33;26.60;94.60
10662;DHT22;5379;51.034;7.006;2023-07-20T13:35:39;26.40;94.50
10662;DHT22;5379;51.034;7.006;2023-07-20T13:38:15;25.90;95.40
10662;DHT22;5379;51.034;7.006;2023-07-20T13:55:49;25.40;96.40
10662;DHT22;5379;51.034;7.006;2023-07-20T13:58:16;25.80;96.40
10662;DHT22;5379;51.034;7.006;2023-07-20T14:00:44;26.30;95.20
10662;DHT22;5379;51.034;7.006;2023-07-20T14:03:11;26.30;95.60
10662;DHT22;5379;51.034;7.006;2023-07-20T14:05:38;26.40;95.50
10662;DHT22;5379;51.034;7.006;2023-07-20T14:08:05;26.20;95.60
10662;DHT22;5379;51.034;7.006;2023-07-20T14:10:32;26.10;94.00
10662;DHT22;5379;51.034;7.006;2023-07-20T14:12:59;26.10;94.50
10662;DHT22;5379;51.034;7.006;2023-07-20T14:15:26;26.30;95.50
10662;DHT22;5379;51.034;7.006;2023-07-20T14:17:54;26.20;91.10
10662;DHT22;5379;51.034;7.006;2023-07-20T14:20:21;26.30;94.40
10662;DHT22;5379;51.034;7.006;2023-07-20T14:22:48;26.30;93.00
10662;DHT22;5379;51.034;7.006;2023-07-20T14:25:15;26.70;94.90
10662;DHT22;5379;51.034;7.006;2023-07-20T14:27:42;26.50;93.10
10662;DHT22;5379;51.034;7.006;2023-07-20T14:30:09;26.40;95.20
10662;DHT22;5379;51.034;7.006;2023-07-20T14:32:36;26.30;95.50
10662;DHT22;5379;51.034;7.006;2023-07-20T14:35:06;26.60;95.00
10662;DHT22;5379;51.034;7.006;2023-07-20T14:37:33;27.00;94.00
10662;DHT22;5379;51.034;7.006;2023-07-20T14:40:00;27.00;94.60
10662;DHT22;5379;51.034;7.006;2023-07-20T14:42:30;26.00;93.60
10662;DHT22;5379;51.034;7.006;2023-07-20T14:44:58;26.10;94.40
10662;DHT22;5379;51.034;7.006;2023-07-20T14:47:24;26.00;95.60
10662;DHT22;5379;51.034;7.006;2023-07-20T14:49:51;25.70;96.00
10662;DHT22;5379;51.034;7.006;2023-07-20T14:52:20;25.40;96.30
10662;DHT22;5379;51.034;7.006;2023-07-20T14:54:47;25.40;92.80
10662;DHT22;5379;51.034;7.006;2023-07-20T14:57:14;25.70;95.00
10662;DHT22;5379;51.034;7.006;2023-07-20T14:59:41;25.30;94.10
10662;DHT22;5379;51.034;7.006;2023-07-20T15:05:46;25.30;92.00
10662;DHT22;5379;51.034;7.006;2023-07-20T15:13:44;26.40;93.00
10662;DHT22;5379;51.034;7.006;2023-07-20T15:16:11;26.40;90.70
10662;DHT22;5379;51.034;7.006;2023-07-20T15:18:38;25.60;90.60
10662;DHT22;5379;51.034;7.006;2023-07-20T15:21:05;25.80;91.10
10662;DHT22;5379;51.034;7.006;2023-07-20T15:23:33;26.00;95.40
10662;DHT22;5379;51.034;7.006;2023-07-20T15:26:00;26.40;92.10
10662;DHT22;5379;51.034;7.006;2023-07-20T15:28:27;26.60;95.10
10662;DHT22;5379;51.034;7.006;2023-07-20T15:30:59;26.60;90.90
10662;DHT22;5379;51.034;7.006;2023-07-20T15:33:27;26.60;90.50
10662;DHT22;5379;51.034;7.006;2023-07-20T15:35:54;26.20;90.50
10662;DHT22;5379;51.034;7.006;2023-07-20T15:38:21;26.30;90.50
10662;DHT22;5379;51.034;7.006;2023-07-20T15:40:49;26.10;90.40
10662;DHT22;5379;51.034;7.006;2023-07-20T15:43:16;25.90;90.60
10662;DHT22;5379;51.034;7.006;2023-07-20T15:45:47;25.90;90.60
10662;DHT22;5379;51.034;7.006;2023-07-20T15:48:15;25.70;90.40
10662;DHT22;5379;51.034;7.006;2023-07-20T15:53:10;26.00;90.00
10662;DHT22;5379;51.034;7.006;2023-07-20T15:55:36;26.00;90.70
10662;DHT22;5379;51.034;7.006;2023-07-20T15:58:05;26.30;91.80
10662;DHT22;5379;51.034;7.006;2023-07-20T16:00:32;27.10;93.30
10662;DHT22;5379;51.034;7.006;2023-07-20T16:02:59;27.10;93.60
10662;DHT22;5379;51.034;7.006;2023-07-20T16:05:26;26.90;90.40
10662;DHT22;5379;51.034;7.006;2023-07-20T16:07:53;26.10;90.50
10662;DHT22;5379;51.034;7.006;2023-07-20T16:10:19;26.00;91.60
10662;DHT22;5379;51.034;7.006;2023-07-20T16:12:46;26.10;90.20
10662;DHT22;5379;51.034;7.006;2023-07-20T16:15:15;26.50;91.90
10662;DHT22;5379;51.034;7.006;2023-07-20T16:17:42;27.30;93.70
10662;DHT22;5379;51.034;7.006;2023-07-20T16:20:09;26.70;89.40
10662;DHT22;5379;51.034;7.006;2023-07-20T16:22:36;26.40;90.20
10662;DHT22;5379;51.034;7.006;2023-07-20T16:25:04;26.40;90.90
10662;DHT22;5379;51.034;7.006;2023-07-20T16:27:31;26.40;89.70
10662;DHT22;5379;51.034;7.006;2023-07-20T16:29:58;26.70;89.30
10662;DHT22;5379;51.034;7.006;2023-07-20T16:32:26;27.10;90.00
10662;DHT22;5379;51.034;7.006;2023-07-20T16:34:53;26.70;90.80
10662;DHT22;5379;51.034;7.006;2023-07-20T16:37:20;27.30;90.30
10662;DHT22;5379;51.034;7.006;2023-07-20T16:39:50;27.80;90.30
10662;DHT22;5379;51.034;7.006;2023-07-20T16:42:18;27.10;88.40
10662;DHT22;5379;51.034;7.006;2023-07-20T16:44:49;26.80;90.20
10662;DHT22;5379;51.034;7.006;2023-07-20T16:47:16;26.80;89.00
10662;DHT22;5379;51.034;7.006;2023-07-20T16:49:45;27.30;91.60
10662;DHT22;5379;51.034;7.006;2023-07-20T16:52:11;27.00;88.30
10662;DHT22;5379;51.034;7.006;2023-07-20T16:54:38;26.70;88.70
10662;DHT22;5379;51.034;7.006;2023-07-20T16:57:07;27.10;93.70
10662;DHT22;5379;51.034;7.006;2023-07-20T16:59:34;27.30;93.60
10662;DHT22;5379;51.034;7.006;2023-07-20T17:02:01;27.60;91.80
10662;DHT22;5379;51.034;7.006;2023-07-20T17:04:28;27.80;93.50
10662;DHT22;5379;51.034;7.006;2023-07-20T17:06:56;26.50;88.20
10662;DHT22;5379;51.034;7.006;2023-07-20T17:09:24;26.00;87.60
10662;DHT22;5379;51.034;7.006;2023-07-20T17:11:52;25.90;88.60
10662;DHT22;5379;51.034;7.006;2023-07-20T17:14:19;26.30;89.10
10662;DHT22;5379;51.034;7.006;2023-07-20T17:21:43;27.00;89.60
10662;DHT22;5379;51.034;7.006;2023-07-20T17:24:43;26.70;89.70
10662;DHT22;5379;51.034;7.006;2023-07-20T17:29:57;27.20;87.50
10662;DHT22;5379;51.034;7.006;2023-07-20T17:34:56;26.00;87.50
10662;DHT22;5379;51.034;7.006;2023-07-20T17:40:11;26.10;88.40
10662;DHT22;5379;51.034;7.006;2023-07-20T17:42:39;26.60;87.50
10662;DHT22;5379;51.034;7.006;2023-07-20T17:45:08;26.60;87.50
10662;DHT22;5379;51.034;7.006;2023-07-20T17:47:37;26.70;86.80
10662;DHT22;5379;51.034;7.006;2023-07-20T17:50:06;27.50;91.40
10662;DHT22;5379;51.034;7.006;2023-07-20T17:57:32;27.20;88.00
10662;DHT22;5379;51.034;7.006;2023-07-20T17:59:59;27.20;88.50
10662;DHT22;5379;51.034;7.006;2023-07-20T18:02:26;27.10;87.50
10662;DHT22;5379;51.034;7.006;2023-07-20T18:04:54;28.10;91.70
10662;DHT22;5379;51.034;7.006;2023-07-20T18:07:21;28.00;86.10
10662;DHT22;5379;51.034;7.006;2023-07-20T18:09:48;27.50;86.00
10662;DHT22;5379;51.034;7.006;2023-07-20T18:12:15;28.00;87.80
10662;DHT22;5379;51.034;7.006;2023-07-20T18:14:43;27.70;87.20
10662;DHT22;5379;51.034;7.006;2023-07-20T18:17:10;27.60;87.20
10662;DHT22;5379;51.034;7.006;2023-07-20T18:19:37;27.50;87.70
10662;DHT22;5379;51.034;7.006;2023-07-20T18:22:05;27.60;87.40
10662;DHT22;5379;51.034;7.006;2023-07-20T18:24:32;28.00;90.10
10662;DHT22;5379;51.034;7.006;2023-07-20T18:26:59;27.30;87.10
10662;DHT22;5379;51.034;7.006;2023-07-20T18:29:25;27.00;87.40
10662;DHT22;5379;51.034;7.006;2023-07-20T18:31:54;26.80;87.90
10662;DHT22;5379;51.034;7.006;2023-07-20T18:34:21;26.70;88.40
10662;DHT22;5379;51.034;7.006;2023-07-20T18:36:48;27.00;88.30
10662;DHT22;5379;51.034;7.006;2023-07-20T18:39:15;26.60;88.40
10662;DHT22;5379;51.034;7.006;2023-07-20T18:41:42;27.00;89.00
10662;DHT22;5379;51.034;7.006;2023-07-20T18:44:09;27.00;88.50
10662;DHT22;5379;51.034;7.006;2023-07-20T18:46:36;27.00;88.20
10662;DHT22;5379;51.034;7.006;2023-07-20T18:49:05;27.20;88.50
10662;DHT22;5379;51.034;7.006;2023-07-20T18:51:32;27.30;88.70
10662;DHT22;5379;51.034;7.006;2023-07-20T18:53:58;27.70;89.80
10662;DHT22;5379;51.034;7.006;2023-07-20T18:56:25;27.80;88.60
10662;DHT22;5379;51.034;7.006;2023-07-20T18:58:52;27.10;88.00
10662;DHT22;5379;51.034;7.006;2023-07-20T19:01:19;27.10;88.90
10662;DHT22;5379;51.034;7.006;2023-07-20T19:03:46;27.40;89.50
10662;DHT22;5379;51.034;7.006;2023-07-20T19:06:14;27.00;87.70
10662;DHT22;5379;51.034;7.006;2023-07-20T19:08:41;27.00;88.30
10662;DHT22;5379;51.034;7.006;2023-07-20T19:11:08;26.70;89.10
10662;DHT22;5379;51.034;7.006;2023-07-20T19:13:36;26.70;90.00
10662;DHT22;5379;51.034;7.006;2023-07-20T19:16:04;26.50;89.50
10662;DHT22;5379;51.034;7.006;2023-07-20T19:18:33;26.40;90.60
10662;DHT22;5379;51.034;7.006;2023-07-20T19:21:02;26.30;90.20
10662;DHT22;5379;51.034;7.006;2023-07-20T19:23:31;26.30;90.50
10662;DHT22;5379;51.034;7.006;2023-07-20T19:25:58;26.60;90.40
10662;DHT22;5379;51.034;7.006;2023-07-20T19:28:25;26.70;90.30
10662;DHT22;5379;51.034;7.006;2023-07-20T19:30:52;26.50;90.20
10662;DHT22;5379;51.034;7.006;2023-07-20T19:33:19;26.40;90.30
10662;DHT22;5379;51.034;7.006;2023-07-20T19:35:46;26.10;90.40
10662;DHT22;5379;51.034;7.006;2023-07-20T19:38:13;26.00;90.70
10662;DHT22;5379;51.034;7.006;2023-07-20T19:40:49;26.00;90.60
10662;DHT22;5379;51.034;7.006;2023-07-20T19:43:16;25.90;90.70
10662;DHT22;5379;51.034;7.006;2023-07-20T19:48:10;25.80;90.60
10662;DHT22;5379;51.034;7.006;2023-07-20T19:50:37;25.70;91.00
10662;DHT22;5379;51.034;7.006;2023-07-20T19:53:04;25.70;91.20
10662;DHT22;5379;51.034;7.006;2023-07-20T19:55:31;25.70;90.90
10662;DHT22;5379;51.034;7.006;2023-07-20T19:57:59;25.60;91.50
10662;DHT22;5379;51.034;7.006;2023-07-20T20:00:28;25.60;91.20
10662;DHT22;5379;51.034;7.006;2023-07-20T20:02:55;25.60;91.40
10662;DHT22;5379;51.034;7.006;2023-07-20T20:05:22;25.50;91.30
10662;DHT22;5379;51.034;7.006;2023-07-20T20:07:50;25.50;91.40
10662;DHT22;5379;51.034;7.006;2023-07-20T20:10:17;25.40;91.50
10662;DHT22;5379;51.034;7.006;2023-07-20T20:12:44;25.30;91.50
10662;DHT22;5379;51.034;7.006;2023-07-20T20:15:13;25.40;92.30
10662;DHT22;5379;51.034;7.006;2023-07-20T20:17:40;25.90;91.20
10662;DHT22;5379;51.034;7.006;2023-07-20T20:20:09;25.60;91.30
10662;DHT22;5379;51.034;7.006;2023-07-20T20:22:36;25.60;91.70
10662;DHT22;5379;51.034;7.006;2023-07-20T20:25:04;25.30;92.00
10662;DHT22;5379;51.034;7.006;2023-07-20T20:27:32;25.00;92.60
10662;DHT22;5379;51.034;7.006;2023-07-20T20:29:59;25.00;92.50
10662;DHT22;5379;51.034;7.006;2023-07-20T20:32:28;24.80;92.80
10662;DHT22;5379;51.034;7.006;2023-07-20T20:34:56;24.80;93.30
10662;DHT22;5379;51.034;7.006;2023-07-20T20:37:23;24.60;93.40
10662;DHT22;5379;51.034;7.006;2023-07-20T20:39:50;24.50;93.60
10662;DHT22;5379;51.034;7.006;2023-07-20T20:42:18;24.60;94.00
10662;DHT22;5379;51.034;7.006;2023-07-20T20:44:45;24.70;93.50
10662;DHT22;5379;51.034;7.006;2023-07-20T20:47:13;24.40;93.60
10662;DHT22;5379;51.034;7.006;2023-07-20T20:49:42;24.20;93.60
10662;DHT22;5379;51.034;7.006;2023-07-20T20:57:06;24.50;93.60
10662;DHT22;5379;51.034;7.006;2023-07-20T21:02:03;24.90;93.30
10662;DHT22;5379;51.034;7.006;2023-07-20T21:16:50;25.90;95.20
10662;DHT22;5379;51.034;7.006;2023-07-20T21:19:17;25.30;96.00
10662;DHT22;5379;51.034;7.006;2023-07-20T21:21:44;25.50;95.90
10662;DHT22;5379;51.034;7.006;2023-07-20T21:26:40;24.30;99.40
10662;DHT22;5379;51.034;7.006;2023-07-20T21:29:07;24.10;99.90
10662;DHT22;5379;51.034;7.006;2023-07-20T21:31:35;23.50;99.90
10662;DHT22;5379;51.034;7.006;2023-07-20T21:34:02;23.10;99.90
10662;DHT22;5379;51.034;7.006;2023-07-20T21:36:30;22.90;99.90
10662;DHT22;5379;51.034;7.006;2023-07-20T21:38:57;23.10;99.90
10662;DHT22;5379;51.034;7.006;2023-07-20T21:41:26;22.50;99.90
10662;DHT22;5379;51.034;7.006;2023-07-20T21:43:53;22.30;99.90
10662;DHT22;5379;51.034;7.006;2023-07-20T21:46:19;22.20;99.90
10662;DHT22;5379;51.034;7.006;2023-07-20T21:48:46;21.90;99.90
10662;DHT22;5379;51.034;7.006;2023-07-20T21:51:13;21.50;99.90
10662;DHT22;5379;51.034;7.006;2023-07-20T21:53:41;20.80;99.90